createdAt,value
2017-11-29T00:00:37.825Z,2.26
2017-11-29T00:01:37.847Z,2.26
2017-11-29T00:02:37.894Z,2.26
2017-11-29T00:03:37.827Z,2.27
2017-11-29T00:04:37.835Z,2.28
2017-11-29T00:05:37.840Z,2.28
2017-11-29T00:06:37.897Z,2.31
2017-11-29T00:07:37.843Z,2.33
2017-11-29T00:08:37.901Z,2.33
2017-11-29T00:09:37.841Z,2.35
2017-11-29T00:10:37.899Z,2.36
2017-11-29T00:11:37.843Z,2.38
2017-11-29T00:12:37.902Z,2.38
2017-11-29T00:13:37.905Z,2.38
2017-11-29T00:14:37.921Z,2.36
2017-11-29T00:15:37.836Z,2.38
2017-11-29T00:16:37.834Z,2.38
2017-11-29T00:17:37.835Z,2.39
2017-11-29T00:18:37.855Z,2.38
2017-11-29T00:19:37.800Z,2.39
2017-11-29T00:20:37.754Z,2.40
2017-11-29T00:21:37.804Z,2.40
2017-11-29T00:22:37.752Z,2.40
2017-11-29T00:23:37.754Z,2.42
2017-11-29T00:24:37.757Z,2.43
2017-11-29T00:25:37.862Z,2.44
2017-11-29T00:26:37.779Z,2.44
2017-11-29T00:27:37.853Z,2.46
2017-11-29T00:28:37.891Z,2.50
2017-11-29T00:29:37.891Z,2.50
2017-11-29T00:30:37.863Z,2.51
2017-11-29T00:31:37.803Z,2.54
2017-11-29T00:32:37.799Z,2.51
2017-11-29T00:33:37.865Z,2.51
2017-11-29T00:34:37.875Z,2.50
2017-11-29T00:35:37.894Z,2.43
2017-11-29T00:36:37.869Z,2.42
2017-11-29T00:37:37.845Z,2.40
2017-11-29T00:38:37.902Z,2.36
2017-11-29T00:39:37.817Z,2.32
2017-11-29T00:40:37.911Z,2.24
2017-11-29T00:41:37.905Z,2.19
2017-11-29T00:42:37.818Z,2.13
2017-11-29T00:43:37.847Z,2.04
2017-11-29T00:44:37.939Z,1.99
2017-11-29T00:45:37.909Z,1.91
2017-11-29T00:46:37.907Z,1.83
2017-11-29T00:47:37.886Z,1.75
2017-11-29T00:48:37.812Z,1.64
2017-11-29T00:49:37.857Z,1.56
2017-11-29T00:50:37.907Z,1.47
2017-11-29T00:51:37.789Z,1.39
2017-11-29T00:52:37.856Z,1.28
2017-11-29T00:53:37.908Z,1.24
2017-11-29T00:54:37.875Z,1.28
2017-11-29T00:55:37.817Z,1.31
2017-11-29T00:56:37.814Z,1.34
2017-11-29T00:57:37.890Z,1.35
2017-11-29T00:58:37.879Z,1.35
2017-11-29T00:59:37.810Z,1.34
2017-11-29T01:00:37.792Z,1.34
2017-11-29T01:01:37.830Z,1.36
2017-11-29T01:02:37.915Z,1.38
2017-11-29T01:03:37.811Z,1.38
2017-11-29T01:04:37.890Z,1.32
2017-11-29T01:05:37.921Z,1.28
2017-11-29T01:06:37.883Z,1.27
2017-11-29T01:07:37.837Z,1.20
2017-11-29T01:08:37.837Z,1.21
2017-11-29T01:09:37.892Z,1.28
2017-11-29T01:10:37.818Z,1.28
2017-11-29T01:11:37.886Z,1.28
2017-11-29T01:12:37.866Z,1.27
2017-11-29T01:13:37.889Z,1.18
2017-11-29T01:14:37.906Z,1.12
2017-11-29T01:15:37.993Z,1.06
2017-11-29T01:16:37.812Z,1.01
2017-11-29T01:17:37.928Z,0.98
2017-11-29T01:18:37.922Z,0.93
2017-11-29T01:19:37.896Z,0.85
2017-11-29T01:20:37.828Z,0.82
2017-11-29T01:21:37.868Z,0.82
2017-11-29T01:22:37.911Z,0.83
2017-11-29T01:23:37.868Z,0.83
2017-11-29T01:24:37.835Z,0.82
2017-11-29T01:25:37.834Z,0.79
2017-11-29T01:26:37.880Z,0.76
2017-11-29T01:27:37.814Z,0.74
2017-11-29T01:28:37.934Z,0.72
2017-11-29T01:29:37.935Z,0.75
2017-11-29T01:30:37.934Z,0.79
2017-11-29T01:31:37.813Z,0.82
2017-11-29T01:32:37.933Z,0.86
2017-11-29T01:33:37.936Z,0.94
2017-11-29T01:34:37.907Z,0.97
2017-11-29T01:35:37.903Z,0.97
2017-11-29T01:36:37.835Z,0.98
2017-11-29T01:37:37.918Z,0.98
2017-11-29T01:38:37.952Z,0.95
2017-11-29T01:39:37.847Z,0.98
2017-11-29T01:40:37.887Z,0.97
2017-11-29T01:41:37.886Z,0.95
2017-11-29T01:42:37.923Z,0.94
2017-11-29T01:43:37.849Z,0.95
2017-11-29T01:44:37.957Z,0.94
2017-11-29T01:45:37.892Z,0.94
2017-11-29T01:46:37.957Z,0.94
2017-11-29T01:47:37.961Z,0.93
2017-11-29T01:48:37.891Z,0.88
2017-11-29T01:49:37.958Z,0.83
2017-11-29T01:50:37.900Z,0.81
2017-11-29T01:51:37.961Z,0.72
2017-11-29T01:52:37.896Z,0.68
2017-11-29T01:53:37.965Z,0.64
2017-11-29T01:54:37.897Z,0.57
2017-11-29T01:55:37.960Z,0.56
2017-11-29T01:56:37.894Z,0.49
2017-11-29T01:57:37.969Z,0.49
2017-11-29T01:58:37.822Z,0.56
2017-11-29T01:59:37.853Z,0.57
2017-11-29T02:00:37.897Z,0.60
2017-11-29T02:01:37.920Z,0.59
2017-11-29T02:02:37.905Z,0.63
2017-11-29T02:03:37.926Z,0.70
2017-11-29T02:04:37.898Z,0.71
2017-11-29T02:05:37.842Z,0.74
2017-11-29T02:06:37.895Z,0.74
2017-11-29T02:07:37.853Z,0.78
2017-11-29T02:08:37.870Z,0.81
2017-11-29T02:09:37.819Z,0.81
2017-11-29T02:10:37.924Z,0.81
2017-11-29T02:11:37.922Z,0.82
2017-11-29T02:12:37.872Z,0.86
2017-11-29T02:13:37.916Z,0.85
2017-11-29T02:14:37.824Z,0.90
2017-11-29T02:15:37.872Z,0.91
2017-11-29T02:16:37.878Z,0.97
2017-11-29T02:17:37.885Z,1.00
2017-11-29T02:18:37.976Z,1.02
2017-11-29T02:19:37.976Z,1.08
2017-11-29T02:20:37.911Z,1.09
2017-11-29T02:21:37.976Z,1.09
2017-11-29T02:22:37.912Z,1.08
2017-11-29T02:23:37.984Z,1.15
2017-11-29T02:24:37.912Z,1.20
2017-11-29T02:25:37.910Z,1.20
2017-11-29T02:26:37.917Z,1.15
2017-11-29T02:27:38.005Z,1.13
2017-11-29T02:28:37.803Z,1.12
2017-11-29T02:29:37.894Z,1.12
2017-11-29T02:30:37.892Z,1.09
2017-11-29T02:31:38.107Z,1.05
2017-11-29T02:32:37.960Z,1.05
2017-11-29T02:33:37.944Z,1.05
2017-11-29T02:34:37.816Z,1.06
2017-11-29T02:35:37.855Z,1.06
2017-11-29T02:36:37.809Z,1.06
2017-11-29T02:37:37.867Z,1.08
2017-11-29T02:38:37.929Z,1.09
2017-11-29T02:39:37.924Z,1.11
2017-11-29T02:40:37.989Z,1.11
2017-11-29T02:41:37.924Z,1.11
2017-11-29T02:42:38.001Z,1.12
2017-11-29T02:43:37.997Z,1.18
2017-11-29T02:44:37.924Z,1.21
2017-11-29T02:45:37.993Z,1.23
2017-11-29T02:46:37.994Z,1.25
2017-11-29T02:47:37.928Z,1.25
2017-11-29T02:48:37.877Z,1.25
2017-11-29T02:49:37.930Z,1.23
2017-11-29T02:50:37.998Z,1.24
2017-11-29T02:51:37.929Z,1.24
2017-11-29T02:52:37.997Z,1.23
2017-11-29T02:53:37.938Z,1.23
2017-11-29T02:54:38.017Z,1.23
2017-11-29T02:55:37.931Z,1.24
2017-11-29T02:56:37.999Z,1.23
2017-11-29T02:57:37.931Z,1.23
2017-11-29T02:58:37.935Z,1.24
2017-11-29T02:59:38.002Z,1.25
2017-11-29T03:00:37.934Z,1.23
2017-11-29T03:01:38.001Z,1.24
2017-11-29T03:02:37.933Z,1.23
2017-11-29T03:03:38.007Z,1.20
2017-11-29T03:04:37.943Z,1.18
2017-11-29T03:05:37.937Z,1.20
2017-11-29T03:06:37.940Z,1.15
2017-11-29T03:07:37.940Z,1.15
2017-11-29T03:08:37.914Z,1.13
2017-11-29T03:09:37.908Z,1.11
2017-11-29T03:10:37.915Z,1.12
2017-11-29T03:11:37.995Z,1.13
2017-11-29T03:12:37.909Z,1.15
2017-11-29T03:13:38.008Z,1.15
2017-11-29T03:14:37.912Z,1.15
2017-11-29T03:15:37.999Z,1.18
2017-11-29T03:16:38.003Z,1.21
2017-11-29T03:17:37.966Z,1.24
2017-11-29T03:18:37.994Z,1.25
2017-11-29T03:19:37.907Z,1.28
2017-11-29T03:20:37.972Z,1.28
2017-11-29T03:21:37.948Z,1.28
2017-11-29T03:22:37.912Z,1.29
2017-11-29T03:23:37.979Z,1.28
2017-11-29T03:24:37.913Z,1.29
2017-11-29T03:25:38.001Z,1.28
2017-11-29T03:26:37.973Z,1.29
2017-11-29T03:27:37.881Z,1.31
2017-11-29T03:28:37.951Z,1.31
2017-11-29T03:29:38.021Z,1.31
2017-11-29T03:30:37.956Z,1.32
2017-11-29T03:31:37.953Z,1.34
2017-11-29T03:32:37.955Z,1.35
2017-11-29T03:33:38.023Z,1.35
2017-11-29T03:34:37.956Z,1.34
2017-11-29T03:35:38.024Z,1.35
2017-11-29T03:36:37.957Z,1.35
2017-11-29T03:37:37.958Z,1.35
2017-11-29T03:38:37.846Z,1.35
2017-11-29T03:39:37.899Z,1.38
2017-11-29T03:40:37.846Z,1.36
2017-11-29T03:41:37.933Z,1.38
2017-11-29T03:42:37.851Z,1.35
2017-11-29T03:43:37.846Z,1.36
2017-11-29T03:44:37.856Z,1.35
2017-11-29T03:45:37.850Z,1.35
2017-11-29T03:46:37.901Z,1.34
2017-11-29T03:47:37.973Z,1.32
2017-11-29T03:48:37.985Z,1.31
2017-11-29T03:49:37.983Z,1.31
2017-11-29T03:50:38.028Z,1.29
2017-11-29T03:51:37.994Z,1.28
2017-11-29T03:52:37.988Z,1.28
2017-11-29T03:53:37.977Z,1.28
2017-11-29T03:54:37.940Z,1.31
2017-11-29T03:55:37.990Z,1.29
2017-11-29T03:56:37.943Z,1.32
2017-11-29T03:57:38.021Z,1.34
2017-11-29T03:58:37.970Z,1.34
2017-11-29T03:59:37.973Z,1.35
2017-11-29T04:00:37.971Z,1.34
2017-11-29T04:01:38.037Z,1.35
2017-11-29T04:02:37.974Z,1.36
2017-11-29T04:03:37.923Z,1.38
2017-11-29T04:04:37.977Z,1.36
2017-11-29T04:05:38.043Z,1.38
2017-11-29T04:06:37.977Z,1.39
2017-11-29T04:07:38.039Z,1.40
2017-11-29T04:08:37.982Z,1.40
2017-11-29T04:09:38.051Z,1.42
2017-11-29T04:10:37.975Z,1.42
2017-11-29T04:11:38.045Z,1.43
2017-11-29T04:12:38.008Z,1.45
2017-11-29T04:13:37.980Z,1.45
2017-11-29T04:14:38.050Z,1.46
2017-11-29T04:15:37.982Z,1.45
2017-11-29T04:16:38.050Z,1.47
2017-11-29T04:17:37.993Z,1.46
2017-11-29T04:18:38.056Z,1.47
2017-11-29T04:19:37.985Z,1.49
2017-11-29T04:20:38.093Z,1.52
2017-11-29T04:21:38.053Z,1.53
2017-11-29T04:22:37.986Z,1.54
2017-11-29T04:23:38.056Z,1.57
2017-11-29T04:24:37.984Z,1.56
2017-11-29T04:25:38.006Z,1.57
2017-11-29T04:26:37.987Z,1.57
2017-11-29T04:27:38.056Z,1.58
2017-11-29T04:28:37.988Z,1.57
2017-11-29T04:29:38.082Z,1.57
2017-11-29T04:30:38.055Z,1.60
2017-11-29T04:31:37.991Z,1.60
2017-11-29T04:32:38.063Z,1.58
2017-11-29T04:33:38.023Z,1.58
2017-11-29T04:34:37.993Z,1.61
2017-11-29T04:35:38.066Z,1.63
2017-11-29T04:36:38.067Z,1.61
2017-11-29T04:37:37.995Z,1.61
2017-11-29T04:38:38.062Z,1.61
2017-11-29T04:39:37.996Z,1.61
2017-11-29T04:40:38.063Z,1.60
2017-11-29T04:41:37.995Z,1.63
2017-11-29T04:42:37.998Z,1.61
2017-11-29T04:43:38.064Z,1.61
2017-11-29T04:44:37.997Z,1.63
2017-11-29T04:45:38.068Z,1.61
2017-11-29T04:46:38.000Z,1.63
2017-11-29T04:47:38.064Z,1.61
2017-11-29T04:48:38.010Z,1.61
2017-11-29T04:49:38.072Z,1.58
2017-11-29T04:50:38.078Z,1.58
2017-11-29T04:51:38.003Z,1.57
2017-11-29T04:52:38.009Z,1.57
2017-11-29T04:53:38.070Z,1.56
2017-11-29T04:54:38.071Z,1.56
2017-11-29T04:55:38.005Z,1.54
2017-11-29T04:56:38.005Z,1.54
2017-11-29T04:57:38.076Z,1.53
2017-11-29T04:58:37.940Z,1.52
2017-11-29T04:59:37.947Z,1.52
2017-11-29T05:00:38.015Z,1.49
2017-11-29T05:01:37.938Z,1.49
2017-11-29T05:02:37.980Z,1.49
2017-11-29T05:03:38.006Z,1.49
2017-11-29T05:04:38.014Z,1.49
2017-11-29T05:05:37.955Z,1.49
2017-11-29T05:06:37.954Z,1.47
2017-11-29T05:07:37.990Z,1.47
2017-11-29T05:08:37.981Z,1.46
2017-11-29T05:09:38.035Z,1.43
2017-11-29T05:10:38.002Z,1.43
2017-11-29T05:11:37.948Z,1.42
2017-11-29T05:12:37.984Z,1.42
2017-11-29T05:13:38.079Z,1.42
2017-11-29T05:14:38.076Z,1.42
2017-11-29T05:15:38.067Z,1.40
2017-11-29T05:16:37.969Z,1.42
2017-11-29T05:17:37.993Z,1.42
2017-11-29T05:19:38.021Z,1.43
2017-11-29T05:20:37.908Z,1.45
2017-11-29T05:21:37.901Z,1.46
2017-11-29T05:22:38.020Z,1.47
2017-11-29T05:23:38.026Z,1.47
2017-11-29T05:24:37.969Z,1.47
2017-11-29T05:25:37.908Z,1.47
2017-11-29T05:26:37.909Z,1.52
2017-11-29T05:27:38.020Z,1.50
2017-11-29T05:28:37.914Z,1.53
2017-11-29T05:29:38.077Z,1.54
2017-11-29T05:30:38.029Z,1.56
2017-11-29T05:31:38.055Z,1.57
2017-11-29T05:32:38.048Z,1.58
2017-11-29T05:33:38.086Z,1.58
2017-11-29T05:34:37.988Z,1.60
2017-11-29T05:35:37.963Z,1.60
2017-11-29T05:36:37.998Z,1.61
2017-11-29T05:37:38.050Z,1.65
2017-11-29T05:38:37.988Z,1.67
2017-11-29T05:39:38.084Z,1.68
2017-11-29T05:40:38.090Z,1.69
2017-11-29T05:41:38.040Z,1.69
2017-11-29T05:42:38.079Z,1.69
2017-11-29T05:43:38.034Z,1.69
2017-11-29T05:44:37.958Z,1.71
2017-11-29T05:45:37.966Z,1.71
2017-11-29T05:46:37.993Z,1.72
2017-11-29T05:47:37.993Z,1.71
2017-11-29T05:48:37.966Z,1.72
2017-11-29T05:49:37.990Z,1.71
2017-11-29T05:50:38.039Z,1.72
2017-11-29T05:51:38.103Z,1.72
2017-11-29T05:52:38.039Z,1.72
2017-11-29T05:53:38.107Z,1.72
2017-11-29T05:54:38.109Z,1.72
2017-11-29T05:55:38.039Z,1.74
2017-11-29T05:56:38.042Z,1.74
2017-11-29T05:57:38.107Z,1.75
2017-11-29T05:58:38.041Z,1.74
2017-11-29T05:59:38.096Z,1.75
2017-11-29T06:00:38.016Z,1.75
2017-11-29T06:01:38.042Z,1.75
2017-11-29T06:02:38.048Z,1.75
2017-11-29T06:03:38.105Z,1.74
2017-11-29T06:04:38.016Z,1.74
2017-11-29T06:05:38.102Z,1.71
2017-11-29T06:06:38.071Z,1.71
2017-11-29T06:07:38.019Z,1.71
2017-11-29T06:08:38.107Z,1.69
2017-11-29T06:09:38.050Z,1.68
2017-11-29T06:10:38.116Z,1.68
2017-11-29T06:11:38.050Z,1.67
2017-11-29T06:12:38.117Z,1.65
2017-11-29T06:13:38.049Z,1.65
2017-11-29T06:14:38.133Z,1.64
2017-11-29T06:15:38.148Z,1.65
2017-11-29T06:16:38.077Z,1.64
2017-11-29T06:17:38.068Z,1.64
2017-11-29T06:18:38.131Z,1.63
2017-11-29T06:19:38.121Z,1.63
2017-11-29T06:20:38.069Z,1.61
2017-11-29T06:21:38.054Z,1.60
2017-11-29T06:22:38.061Z,1.61
2017-11-29T06:23:38.124Z,1.60
2017-11-29T06:24:38.076Z,1.60
2017-11-29T06:25:38.128Z,1.60
2017-11-29T06:26:38.062Z,1.58
2017-11-29T06:27:38.129Z,1.60
2017-11-29T06:28:38.058Z,1.58
2017-11-29T06:29:38.062Z,1.58
2017-11-29T06:30:38.125Z,1.57
2017-11-29T06:31:38.083Z,1.56
2017-11-29T06:32:38.135Z,1.56
2017-11-29T06:33:38.061Z,1.56
2017-11-29T06:34:38.133Z,1.56
2017-11-29T06:35:38.069Z,1.56
2017-11-29T06:36:38.131Z,1.56
2017-11-29T06:37:38.139Z,1.57
2017-11-29T06:38:38.070Z,1.56
2017-11-29T06:39:38.132Z,1.56
2017-11-29T06:40:38.134Z,1.54
2017-11-29T06:41:38.072Z,1.54
2017-11-29T06:42:38.068Z,1.54
2017-11-29T06:43:38.137Z,1.54
2017-11-29T06:44:38.070Z,1.57
2017-11-29T06:45:38.137Z,1.57
2017-11-29T06:46:38.067Z,1.58
2017-11-29T06:47:38.067Z,1.60
2017-11-29T06:48:38.150Z,1.63
2017-11-29T06:49:38.069Z,1.63
2017-11-29T06:50:38.071Z,1.64
2017-11-29T06:51:38.140Z,1.64
2017-11-29T06:52:38.096Z,1.65
2017-11-29T06:53:38.140Z,1.67
2017-11-29T06:54:38.077Z,1.68
2017-11-29T06:55:38.146Z,1.69
2017-11-29T06:56:38.088Z,1.72
2017-11-29T06:57:38.145Z,1.75
2017-11-29T06:58:38.077Z,1.75
2017-11-29T06:59:38.011Z,1.76
2017-11-29T07:00:38.105Z,1.78
2017-11-29T07:01:38.023Z,1.79
2017-11-29T07:02:38.078Z,1.79
2017-11-29T07:03:38.076Z,1.80
2017-11-29T07:04:38.043Z,1.83
2017-11-29T07:05:38.011Z,1.86
2017-11-29T07:06:38.141Z,1.84
2017-11-29T07:07:38.010Z,1.86
2017-11-29T07:08:38.142Z,1.86
2017-11-29T07:09:38.086Z,1.87
2017-11-29T07:10:37.971Z,1.86
2017-11-29T07:11:38.056Z,1.87
2017-11-29T07:12:38.023Z,1.90
2017-11-29T07:13:38.023Z,1.91
2017-11-29T07:14:38.080Z,1.91
2017-11-29T07:15:37.978Z,1.90
2017-11-29T07:16:38.015Z,1.91
2017-11-29T07:17:38.087Z,1.92
2017-11-29T07:18:37.981Z,1.92
2017-11-29T07:19:38.145Z,1.94
2017-11-29T07:20:38.153Z,1.94
2017-11-29T07:21:38.152Z,1.94
2017-11-29T07:22:38.149Z,1.95
2017-11-29T07:23:38.149Z,1.95
2017-11-29T07:24:38.085Z,1.95
2017-11-29T07:25:38.102Z,1.97
2017-11-29T07:26:38.106Z,1.97
2017-11-29T07:27:38.150Z,1.95
2017-11-29T07:28:38.125Z,1.95
2017-11-29T07:29:38.110Z,1.97
2017-11-29T07:30:38.151Z,1.97
2017-11-29T07:31:38.034Z,1.97
2017-11-29T07:32:38.120Z,1.98
2017-11-29T07:33:38.122Z,1.98
2017-11-29T07:34:38.038Z,1.98
2017-11-29T07:35:38.154Z,1.98
2017-11-29T07:36:38.039Z,1.98
2017-11-29T07:37:38.169Z,1.97
2017-11-29T07:38:38.157Z,1.98
2017-11-29T07:39:38.168Z,1.98
2017-11-29T07:40:38.105Z,1.99
2017-11-29T07:41:38.185Z,2.01
2017-11-29T07:42:38.161Z,1.99
2017-11-29T07:43:38.107Z,1.99
2017-11-29T07:44:38.175Z,1.99
2017-11-29T07:45:38.105Z,1.99
2017-11-29T07:46:38.106Z,1.99
2017-11-29T07:47:38.109Z,2.02
2017-11-29T07:48:38.133Z,2.01
2017-11-29T07:49:38.113Z,2.02
2017-11-29T07:50:38.186Z,2.01
2017-11-29T07:51:38.181Z,2.02
2017-11-29T07:52:38.115Z,2.01
2017-11-29T07:53:38.180Z,2.02
2017-11-29T07:54:38.117Z,2.02
2017-11-29T07:55:38.116Z,2.01
2017-11-29T07:56:38.063Z,2.02
2017-11-29T07:57:38.120Z,1.99
2017-11-29T07:58:38.181Z,1.98
2017-11-29T07:59:38.118Z,1.98
2017-11-29T08:00:38.182Z,1.97
2017-11-29T08:01:38.117Z,1.97
2017-11-29T08:02:38.197Z,1.95
2017-11-29T08:03:38.121Z,1.97
2017-11-29T08:04:38.189Z,1.97
2017-11-29T08:05:38.136Z,1.98
2017-11-29T08:06:38.184Z,1.98
2017-11-29T08:07:38.121Z,1.98
2017-11-29T08:08:38.121Z,1.97
2017-11-29T08:09:38.131Z,1.99
2017-11-29T08:10:38.081Z,1.99
2017-11-29T08:11:38.085Z,1.99
2017-11-29T08:12:38.134Z,1.97
2017-11-29T08:13:38.044Z,1.94
2017-11-29T08:14:38.140Z,1.94
2017-11-29T08:15:38.137Z,1.95
2017-11-29T08:16:38.085Z,1.97
2017-11-29T08:17:38.044Z,1.97
2017-11-29T08:18:38.141Z,1.98
2017-11-29T08:19:38.072Z,2.01
2017-11-29T08:20:38.145Z,2.01
2017-11-29T08:21:38.176Z,2.01
2017-11-29T08:22:38.185Z,2.02
2017-11-29T08:23:38.197Z,2.01
2017-11-29T08:24:38.164Z,2.01
2017-11-29T08:25:38.178Z,1.99
2017-11-29T08:26:38.189Z,2.01
2017-11-29T08:27:38.083Z,1.99
2017-11-29T08:28:38.064Z,1.98
2017-11-29T08:29:38.134Z,1.99
2017-11-29T08:30:38.229Z,1.99
2017-11-29T08:31:38.136Z,1.99
2017-11-29T08:32:38.139Z,1.99
2017-11-29T08:33:38.134Z,1.99
2017-11-29T08:34:38.149Z,2.02
2017-11-29T08:35:38.139Z,2.02
2017-11-29T08:36:38.204Z,2.01
2017-11-29T08:37:38.136Z,2.01
2017-11-29T08:38:38.224Z,2.02
2017-11-29T08:39:38.137Z,2.04
2017-11-29T08:40:38.207Z,2.04
2017-11-29T08:41:38.198Z,2.02
2017-11-29T08:42:38.143Z,2.02
2017-11-29T08:43:38.209Z,2.04
2017-11-29T08:44:38.140Z,2.05
2017-11-29T08:45:38.245Z,2.05
2017-11-29T08:46:38.210Z,2.08
2017-11-29T08:47:38.210Z,2.09
2017-11-29T08:48:38.150Z,2.12
2017-11-29T08:49:38.142Z,2.15
2017-11-29T08:50:38.181Z,2.15
2017-11-29T08:51:38.201Z,2.19
2017-11-29T08:52:38.169Z,2.19
2017-11-29T08:53:38.076Z,2.21
2017-11-29T08:54:38.125Z,2.23
2017-11-29T08:55:38.114Z,2.27
2017-11-29T08:56:38.212Z,2.28
2017-11-29T08:57:38.117Z,2.33
2017-11-29T08:58:38.083Z,2.38
2017-11-29T08:59:38.155Z,2.38
2017-11-29T09:00:38.156Z,2.39
2017-11-29T09:01:38.220Z,2.39
2017-11-29T09:02:38.153Z,2.42
2017-11-29T09:03:38.218Z,2.43
2017-11-29T09:04:38.154Z,2.47
2017-11-29T09:05:38.251Z,2.51
2017-11-29T09:06:38.177Z,2.52
2017-11-29T09:07:38.225Z,2.55
2017-11-29T09:08:38.153Z,2.59
2017-11-29T09:09:38.257Z,2.61
2017-11-29T09:10:38.223Z,2.63
2017-11-29T09:11:38.176Z,2.66
2017-11-29T09:12:38.228Z,2.68
2017-11-29T09:13:38.158Z,2.69
2017-11-29T09:14:38.224Z,2.70
2017-11-29T09:15:38.196Z,2.72
2017-11-29T09:16:38.235Z,2.73
2017-11-29T09:17:38.161Z,2.74
2017-11-29T09:18:38.229Z,2.77
2017-11-29T09:19:38.227Z,2.73
2017-11-29T09:20:38.163Z,2.72
2017-11-29T09:21:38.122Z,2.74
2017-11-29T09:22:38.207Z,2.77
2017-11-29T09:23:38.230Z,2.80
2017-11-29T09:24:38.167Z,2.83
2017-11-29T09:25:38.160Z,2.84
2017-11-29T09:26:38.232Z,2.83
2017-11-29T09:27:38.164Z,2.84
2017-11-29T09:28:38.331Z,2.84
2017-11-29T09:29:38.181Z,2.88
2017-11-29T09:30:38.170Z,2.92
2017-11-29T09:31:38.237Z,2.94
2017-11-29T09:32:38.169Z,2.98
2017-11-29T09:33:38.236Z,2.98
2017-11-29T09:34:38.165Z,3.02
2017-11-29T09:35:38.243Z,3.05
2017-11-29T09:36:38.280Z,3.06
2017-11-29T09:37:38.170Z,3.09
2017-11-29T09:38:38.244Z,3.10
2017-11-29T09:39:38.119Z,3.12
2017-11-29T09:40:38.191Z,3.13
2017-11-29T09:41:38.235Z,3.14
2017-11-29T09:42:38.200Z,3.16
2017-11-29T09:43:38.236Z,3.12
2017-11-29T09:44:38.237Z,3.07
2017-11-29T09:45:38.212Z,3.09
2017-11-29T09:46:38.238Z,3.07
2017-11-29T09:47:38.152Z,3.12
2017-11-29T09:48:38.191Z,3.14
2017-11-29T09:49:38.236Z,3.17
2017-11-29T09:50:38.152Z,3.24
2017-11-29T09:51:38.118Z,3.25
2017-11-29T09:52:38.252Z,3.28
2017-11-29T09:53:38.130Z,3.31
2017-11-29T09:54:38.149Z,3.32
2017-11-29T09:55:38.234Z,3.36
2017-11-29T09:56:38.220Z,3.36
2017-11-29T09:57:38.136Z,3.35
2017-11-29T09:58:38.189Z,3.35
2017-11-29T09:59:38.159Z,3.33
2017-11-29T10:00:38.152Z,3.36
2017-11-29T10:01:38.161Z,3.36
2017-11-29T10:02:38.241Z,3.36
2017-11-29T10:03:38.225Z,3.37
2017-11-29T10:04:38.255Z,3.35
2017-11-29T10:05:38.188Z,3.32
2017-11-29T10:06:38.206Z,3.32
2017-11-29T10:07:38.256Z,3.35
2017-11-29T10:08:38.161Z,3.39
2017-11-29T10:09:38.144Z,3.39
2017-11-29T10:10:38.162Z,3.42
2017-11-29T10:11:38.257Z,3.39
2017-11-29T10:12:38.229Z,3.40
2017-11-29T10:13:38.213Z,3.39
2017-11-29T10:14:38.145Z,3.36
2017-11-29T10:15:38.212Z,3.35
2017-11-29T10:16:38.260Z,3.32
2017-11-29T10:17:38.216Z,3.32
2017-11-29T10:18:38.255Z,3.32
2017-11-29T10:19:38.149Z,3.31
2017-11-29T10:20:38.220Z,3.32
2017-11-29T10:21:38.145Z,3.33
2017-11-29T10:22:38.219Z,3.37
2017-11-29T10:23:38.218Z,3.40
2017-11-29T10:24:38.257Z,3.46
2017-11-29T10:25:38.135Z,3.47
2017-11-29T10:26:38.218Z,3.48
2017-11-29T10:27:38.260Z,3.48
2017-11-29T10:28:38.274Z,3.50
2017-11-29T10:29:38.197Z,3.54
2017-11-29T10:30:38.271Z,3.53
2017-11-29T10:31:38.274Z,3.53
2017-11-29T10:32:38.205Z,3.51
2017-11-29T10:33:38.275Z,3.53
2017-11-29T10:34:38.213Z,3.53
2017-11-29T10:35:38.273Z,3.54
2017-11-29T10:36:38.206Z,3.58
2017-11-29T10:37:38.274Z,3.61
2017-11-29T10:38:38.207Z,3.58
2017-11-29T10:39:38.278Z,3.57
2017-11-29T10:40:38.213Z,3.58
2017-11-29T10:41:38.278Z,3.62
2017-11-29T10:42:38.209Z,3.62
2017-11-29T10:43:38.212Z,3.65
2017-11-29T10:44:38.282Z,3.68
2017-11-29T10:45:38.214Z,3.69
2017-11-29T10:46:38.283Z,3.72
2017-11-29T10:47:38.212Z,3.74
2017-11-29T10:48:38.283Z,3.76
2017-11-29T10:49:38.211Z,3.78
2017-11-29T10:50:38.271Z,3.85
2017-11-29T10:51:38.165Z,3.89
2017-11-29T10:52:38.246Z,3.93
2017-11-29T10:53:38.251Z,3.92
2017-11-29T10:54:38.191Z,3.87
2017-11-29T10:55:38.284Z,3.89
2017-11-29T10:56:38.277Z,3.85
2017-11-29T10:57:38.256Z,3.90
2017-11-29T10:58:38.221Z,3.95
2017-11-29T10:59:38.234Z,3.92
2017-11-29T11:00:38.222Z,3.89
2017-11-29T11:01:38.239Z,3.90
2017-11-29T11:02:38.223Z,3.93
2017-11-29T11:03:38.293Z,3.93
2017-11-29T11:04:38.292Z,3.95
2017-11-29T11:05:38.298Z,3.97
2017-11-29T11:06:38.223Z,4.00
2017-11-29T11:07:38.225Z,4.01
2017-11-29T11:08:38.300Z,4.04
2017-11-29T11:09:38.228Z,4.07
2017-11-29T11:10:38.142Z,4.04
2017-11-29T11:11:38.241Z,4.01
2017-11-29T11:12:38.193Z,3.99
2017-11-29T11:13:38.244Z,3.97
2017-11-29T11:14:38.244Z,3.97
2017-11-29T11:15:38.241Z,3.95
2017-11-29T11:16:38.197Z,3.95
2017-11-29T11:17:38.249Z,3.93
2017-11-29T11:18:38.149Z,3.90
2017-11-29T11:19:38.294Z,3.90
2017-11-29T11:20:38.234Z,3.92
2017-11-29T11:21:38.303Z,3.95
2017-11-29T11:22:38.237Z,3.95
2017-11-29T11:23:38.304Z,3.95
2017-11-29T11:24:38.303Z,3.96
2017-11-29T11:25:38.238Z,3.99
2017-11-29T11:26:38.303Z,4.03
2017-11-29T11:27:38.244Z,4.04
2017-11-29T11:28:38.306Z,4.04
2017-11-29T11:29:38.237Z,4.07
2017-11-29T11:30:38.165Z,4.03
2017-11-29T11:31:38.221Z,4.03
2017-11-29T11:32:38.233Z,4.03
2017-11-29T11:33:38.289Z,4.03
2017-11-29T11:34:38.201Z,4.06
2017-11-29T11:35:38.201Z,4.10
2017-11-29T11:36:38.270Z,4.15
2017-11-29T11:37:38.236Z,4.18
2017-11-29T11:38:38.224Z,4.24
2017-11-29T11:39:38.177Z,4.25
2017-11-29T11:40:38.204Z,4.29
2017-11-29T11:41:38.294Z,4.36
2017-11-29T11:42:38.298Z,4.32
2017-11-29T11:43:38.244Z,4.33
2017-11-29T11:44:38.226Z,4.35
2017-11-29T11:45:38.278Z,4.37
2017-11-29T11:46:38.280Z,4.33
2017-11-29T11:47:38.179Z,4.36
2017-11-29T11:48:38.257Z,4.37
2017-11-29T11:49:38.270Z,4.40
2017-11-29T11:50:38.297Z,4.41
2017-11-29T11:51:38.232Z,4.43
2017-11-29T11:52:38.301Z,4.46
2017-11-29T11:53:38.288Z,4.48
2017-11-29T11:54:38.270Z,4.51
2017-11-29T11:55:38.212Z,4.55
2017-11-29T11:56:38.188Z,4.54
2017-11-29T11:57:38.251Z,4.55
2017-11-29T11:58:38.255Z,4.52
2017-11-29T11:59:38.306Z,4.51
2017-11-29T12:00:38.342Z,4.50
2017-11-29T12:01:38.257Z,4.52
2017-11-29T12:02:38.330Z,4.50
2017-11-29T12:03:38.261Z,4.54
2017-11-29T12:04:38.330Z,4.62
2017-11-29T12:05:38.257Z,4.67
2017-11-29T12:06:38.265Z,4.71
2017-11-29T12:07:38.342Z,4.75
2017-11-29T12:08:38.260Z,4.81
2017-11-29T12:09:38.338Z,4.84
2017-11-29T12:10:38.334Z,4.84
2017-11-29T12:11:38.261Z,4.85
2017-11-29T12:12:38.346Z,4.88
2017-11-29T12:13:38.258Z,4.89
2017-11-29T12:14:38.334Z,4.87
2017-11-29T12:15:38.266Z,4.80
2017-11-29T12:16:38.338Z,4.85
2017-11-29T12:17:38.269Z,4.82
2017-11-29T12:18:38.336Z,4.80
2017-11-29T12:19:38.266Z,4.82
2017-11-29T12:20:38.211Z,4.84
2017-11-29T12:21:38.288Z,4.84
2017-11-29T12:22:38.253Z,4.78
2017-11-29T12:23:38.231Z,4.78
2017-11-29T12:24:38.298Z,4.75
2017-11-29T12:25:38.246Z,4.75
2017-11-29T12:26:38.319Z,4.78
2017-11-29T12:27:38.198Z,4.77
2017-11-29T12:28:38.201Z,4.80
2017-11-29T12:29:38.305Z,4.77
2017-11-29T12:30:38.342Z,4.77
2017-11-29T12:31:38.272Z,4.75
2017-11-29T12:32:38.344Z,4.70
2017-11-29T12:33:38.283Z,4.66
2017-11-29T12:34:38.346Z,4.64
2017-11-29T12:35:38.347Z,4.64
2017-11-29T12:36:38.348Z,4.64
2017-11-29T12:37:38.281Z,4.67
2017-11-29T12:38:38.350Z,4.69
2017-11-29T12:39:38.285Z,4.70
2017-11-29T12:40:38.283Z,4.70
2017-11-29T12:41:38.298Z,4.70
2017-11-29T12:42:38.353Z,4.74
2017-11-29T12:43:38.229Z,4.78
2017-11-29T12:44:38.229Z,4.84
2017-11-29T12:45:38.282Z,4.84
2017-11-29T12:46:38.257Z,4.88
2017-11-29T12:47:38.323Z,4.91
2017-11-29T12:48:38.303Z,4.91
2017-11-29T12:49:38.237Z,4.89
2017-11-29T12:50:38.284Z,4.91
2017-11-29T12:51:38.362Z,4.85
2017-11-29T12:52:38.287Z,4.80
2017-11-29T12:53:38.357Z,4.77
2017-11-29T12:54:38.291Z,4.80
2017-11-29T12:55:38.283Z,4.80
2017-11-29T12:56:38.374Z,4.75
2017-11-29T12:57:38.291Z,4.71
2017-11-29T12:58:38.362Z,4.60
2017-11-29T12:59:38.364Z,4.59
2017-11-29T13:00:38.360Z,4.55
2017-11-29T13:01:38.327Z,4.57
2017-11-29T13:02:38.315Z,4.54
2017-11-29T13:03:38.364Z,4.51
2017-11-29T13:04:38.297Z,4.48
2017-11-29T13:05:38.371Z,4.44
2017-11-29T13:06:38.292Z,4.44
2017-11-29T13:07:38.368Z,4.43
2017-11-29T13:08:38.301Z,4.40
2017-11-29T13:09:38.254Z,4.41
2017-11-29T13:10:38.273Z,4.43
2017-11-29T13:11:38.317Z,4.44
2017-11-29T13:12:38.321Z,4.43
2017-11-29T13:13:38.254Z,4.40
2017-11-29T13:14:38.303Z,4.39
2017-11-29T13:15:38.282Z,4.37
2017-11-29T13:16:38.307Z,4.39
2017-11-29T13:17:38.374Z,4.36
2017-11-29T13:18:38.320Z,4.36
2017-11-29T13:19:38.362Z,4.32